Time;durP1;ratioP1;P1;durP2;ratioP2;P2;SDS_P1;SDS_P2;PMS_P1;PMS_P2;Temp;Humidity;BMP_temperature;BMP_pressure;BME280_temperature;BME280_humidity;BME280_pressure;Samples;Min_cycle;Max_cycle;Signal;HPM_P1;HPM_P2
2022/07/07 00:01:26;;;;;;;2.72;1.00;;;;;;;;;;5060003;28;20059;-85
2022/07/07 00:03:54;;;;;;;0.82;0.82;;;;;;;;;;5077566;28;20053;-85
2022/07/07 00:06:21;;;;;;;2.95;1.05;;;;;;;;;;5060023;28;20048;-85
2022/07/07 00:08:53;;;;;;;1.90;0.60;;;;;;;;;;5060006;28;20070;-85
2022/07/07 00:11:24;;;;;;;4.38;0.80;;;;;;;;;;5059998;28;20522;-85
2022/07/07 00:13:52;;;;;;;3.58;0.98;;;;;;;;;;5059915;28;20048;-85
2022/07/07 00:16:19;;;;;;;1.17;0.75;;;;;;;;;;5059784;28;20074;-85
2022/07/07 00:18:47;;;;;;;3.72;0.88;;;;;;;;;;5059794;28;20044;-85
2022/07/07 00:21:14;;;;;;;2.22;0.70;;;;;;;;;;5059754;28;20049;-84
2022/07/07 00:23:41;;;;;;;1.55;0.90;;;;;;;;;;5059734;28;20147;-85
2022/07/07 00:26:08;;;;;;;5.43;0.90;;;;;;;;;;5059259;28;20044;-85
2022/07/07 00:28:36;;;;;;;2.92;0.60;;;;;;;;;;5059869;28;20052;-85
2022/07/07 00:31:03;;;;;;;1.92;0.80;;;;;;;;;;5059470;28;20437;-84
2022/07/07 00:33:30;;;;;;;2.75;0.95;;;;;;;;;;5059850;28;20052;-85
2022/07/07 00:35:57;;;;;;;5.10;1.60;;;;;;;;;;5059514;28;20079;-85
2022/07/07 00:38:24;;;;;;;2.97;0.80;;;;;;;;;;5059260;28;20410;-85
2022/07/07 00:40:52;;;;;;;1.35;0.70;;;;;;;;;;5059696;28;20087;-84
2022/07/07 00:43:20;;;;;;;4.03;0.90;;;;;;;;;;5059744;28;20108;-85
2022/07/07 00:45:49;;;;;;;3.28;1.13;;;;;;;;;;5059310;28;20106;-86
2022/07/07 00:48:18;;;;;;;1.17;0.90;;;;;;;;;;5059274;28;20413;-85
2022/07/07 00:50:46;;;;;;;2.70;0.85;;;;;;;;;;5058726;28;20048;-85
2022/07/07 00:53:13;;;;;;;2.90;1.38;;;;;;;;;;5077476;28;20098;-86
2022/07/07 00:55:40;;;;;;;1.73;0.98;;;;;;;;;;5059310;28;20386;-85
2022/07/07 00:58:08;;;;;;;2.47;0.80;;;;;;;;;;5059131;28;20048;-86
2022/07/07 01:00:35;;;;;;;5.40;1.33;;;;;;;;;;5058765;28;20108;-86
2022/07/07 01:03:02;;;;;;;6.30;1.50;;;;;;;;;;5059286;28;20456;-84
2022/07/07 01:05:32;;;;;;;1.80;1.10;;;;;;;;;;5059066;28;20052;-85
2022/07/07 01:08:02;;;;;;;1.55;1.00;;;;;;;;;;5058929;28;20052;-85
2022/07/07 01:10:30;;;;;;;3.55;1.55;;;;;;;;;;5059207;28;20048;-85
2022/07/07 01:13:01;;;;;;;2.65;0.95;;;;;;;;;;5059225;28;20094;-85
2022/07/07 01:15:28;;;;;;;2.25;0.90;;;;;;;;;;5059092;28;20051;-85
2022/07/07 01:17:56;;;;;;;1.67;0.88;;;;;;;;;;5059725;28;20044;-85
2022/07/07 01:20:23;;;;;;;0.80;0.80;;;;;;;;;;5077517;28;20101;-85
2022/07/07 01:22:51;;;;;;;1.20;0.90;;;;;;;;;;5058731;28;20048;-85
2022/07/07 01:25:18;;;;;;;1.38;1.08;;;;;;;;;;5058208;28;20106;-85
2022/07/07 01:27:45;;;;;;;1.85;1.10;;;;;;;;;;5076817;28;20091;-85
2022/07/07 01:30:13;;;;;;;1.85;1.00;;;;;;;;;;5058177;28;20049;-85
2022/07/07 01:32:40;;;;;;;5.25;1.30;;;;;;;;;;5059465;28;20040;-82
2022/07/07 01:35:08;;;;;;;1.95;1.00;;;;;;;;;;5060414;28;20456;-82
2022/07/07 01:37:36;;;;;;;2.35;1.00;;;;;;;;;;5060611;28;20053;-82
2022/07/07 01:40:04;;;;;;;2.78;1.27;;;;;;;;;;5060443;28;20040;-82
2022/07/07 01:42:31;;;;;;;1.77;1.00;;;;;;;;;;5060600;28;20073;-82
2022/07/07 01:44:58;;;;;;;2.95;1.10;;;;;;;;;;5060158;28;20053;-82
2022/07/07 01:47:25;;;;;;;0.90;0.80;;;;;;;;;;5060205;28;20071;-82
2022/07/07 01:49:53;;;;;;;3.33;1.30;;;;;;;;;;5078359;28;20090;-82
2022/07/07 01:52:20;;;;;;;2.72;1.20;;;;;;;;;;5060148;28;20102;-82
2022/07/07 01:54:47;;;;;;;1.63;0.90;;;;;;;;;;5060473;28;20048;-82
2022/07/07 01:57:15;;;;;;;1.95;1.00;;;;;;;;;;5060590;28;20040;-82
2022/07/07 01:59:42;;;;;;;2.03;1.10;;;;;;;;;;5060984;28;20067;-82
2022/07/07 02:02:09;;;;;;;1.23;0.95;;;;;;;;;;5060016;28;20456;-82
2022/07/07 02:04:36;;;;;;;1.45;1.08;;;;;;;;;;5060787;28;20070;-82
2022/07/07 02:07:04;;;;;;;1.85;0.95;;;;;;;;;;5060366;28;20084;-82
2022/07/07 02:09:31;;;;;;;1.08;0.75;;;;;;;;;;5061065;28;20053;-82
2022/07/07 02:11:58;;;;;;;1.98;0.85;;;;;;;;;;5060726;28;20045;-82
2022/07/07 02:14:26;;;;;;;2.13;0.95;;;;;;;;;;5060201;28;20059;-82
2022/07/07 02:16:54;;;;;;;1.73;0.95;;;;;;;;;;5060765;28;20044;-82
2022/07/07 02:19:21;;;;;;;5.40;1.05;;;;;;;;;;5060908;28;20044;-82
2022/07/07 02:21:48;;;;;;;1.85;0.95;;;;;;;;;;5060471;28;20087;-82
2022/07/07 02:24:15;;;;;;;7.47;1.13;;;;;;;;;;5061472;28;20052;-82
2022/07/07 02:26:42;;;;;;;2.20;0.90;;;;;;;;;;5060691;28;20051;-82
2022/07/07 02:29:10;;;;;;;3.83;1.02;;;;;;;;;;5061822;28;20075;-82
2022/07/07 02:31:38;;;;;;;2.33;0.82;;;;;;;;;;5061654;28;20044;-82
2022/07/07 02:34:05;;;;;;;5.80;1.35;;;;;;;;;;5078909;28;20041;-82
2022/07/07 02:36:33;;;;;;;3.85;0.75;;;;;;;;;;5079705;28;20049;-82
2022/07/07 02:39:00;;;;;;;1.73;1.02;;;;;;;;;;5062052;28;20044;-82
2022/07/07 02:41:27;;;;;;;2.00;0.90;;;;;;;;;;5081149;28;20053;-83
2022/07/07 02:43:54;;;;;;;2.22;1.00;;;;;;;;;;5062605;28;20086;-82
2022/07/07 02:46:21;;;;;;;2.58;0.90;;;;;;;;;;5060402;28;20056;-82
2022/07/07 02:48:49;;;;;;;1.75;1.23;;;;;;;;;;5062973;28;20049;-82
2022/07/07 02:51:16;;;;;;;2.00;1.25;;;;;;;;;;5062400;28;20049;-82
2022/07/07 02:53:43;;;;;;;5.25;1.15;;;;;;;;;;5063848;28;20045;-82
2022/07/07 02:56:10;;;;;;;3.33;1.13;;;;;;;;;;5081438;28;20052;-82
2022/07/07 02:58:38;;;;;;;2.28;1.02;;;;;;;;;;5063804;28;20041;-82
2022/07/07 03:01:05;;;;;;;4.38;1.00;;;;;;;;;;5063586;28;20068;-82
2022/07/07 03:03:32;;;;;;;2.78;1.20;;;;;;;;;;5062962;28;20052;-82
2022/07/07 03:06:00;;;;;;;1.20;1.00;;;;;;;;;;5063618;28;20056;-82
2022/07/07 03:08:27;;;;;;;1.63;1.13;;;;;;;;;;5063526;28;20052;-82
2022/07/07 03:10:58;;;;;;;3.47;1.10;;;;;;;;;;5064881;28;20143;-82
2022/07/07 03:13:25;;;;;;;2.53;0.95;;;;;;;;;;5063425;28;20049;-82
2022/07/07 03:15:54;;;;;;;3.50;1.05;;;;;;;;;;5062050;28;20044;-82
2022/07/07 03:18:21;;;;;;;2.28;0.90;;;;;;;;;;5060741;28;20052;-82
2022/07/07 03:20:49;;;;;;;1.00;0.90;;;;;;;;;;5059808;28;20122;-82
2022/07/07 03:23:16;;;;;;;4.00;1.30;;;;;;;;;;5078152;28;20074;-82
2022/07/07 03:25:43;;;;;;;3.70;1.23;;;;;;;;;;5059535;28;20086;-82
2022/07/07 03:28:10;;;;;;;4.78;1.27;;;;;;;;;;5077863;28;20052;-81
2022/07/07 03:30:37;;;;;;;3.55;1.27;;;;;;;;;;5059538;28;20099;-82
2022/07/07 03:33:04;;;;;;;1.67;1.45;;;;;;;;;;5060378;28;20056;-82
2022/07/07 03:35:31;;;;;;;2.47;1.38;;;;;;;;;;5078395;28;20048;-82
2022/07/07 03:37:59;;;;;;;2.20;1.23;;;;;;;;;;5060398;28;20064;-82
2022/07/07 03:40:26;;;;;;;3.88;1.20;;;;;;;;;;5081677;28;20048;-82
2022/07/07 03:42:53;;;;;;;2.88;1.10;;;;;;;;;;5081303;28;20551;-81
2022/07/07 03:45:20;;;;;;;1.63;1.52;;;;;;;;;;5061884;28;20106;-82
2022/07/07 03:47:50;;;;;;;4.30;1.30;;;;;;;;;;5061485;28;20048;-81
2022/07/07 03:50:17;;;;;;;2.97;1.20;;;;;;;;;;5061193;28;20044;-81
2022/07/07 03:52:44;;;;;;;2.83;1.48;;;;;;;;;;5062271;28;20044;-82
2022/07/07 03:55:11;;;;;;;4.20;1.40;;;;;;;;;;5061706;28;20044;-82
2022/07/07 03:57:39;;;;;;;1.42;1.40;;;;;;;;;;5061964;28;20086;-82
2022/07/07 04:00:06;;;;;;;2.88;1.65;;;;;;;;;;5079568;28;20045;-81
2022/07/07 04:02:33;;;;;;;2.72;1.42;;;;;;;;;;5061536;28;20163;-82
2022/07/07 04:05:00;;;;;;;4.72;1.67;;;;;;;;;;5061436;28;20052;-82
2022/07/07 04:07:28;;;;;;;7.28;1.30;;;;;;;;;;5061877;28;20417;-82
2022/07/07 04:09:55;;;;;;;5.13;1.80;;;;;;;;;;5061392;28;20048;-82
2022/07/07 04:12:22;;;;;;;1.60;1.50;;;;;;;;;;5062109;28;20048;-82
2022/07/07 04:14:49;;;;;;;5.45;1.45;;;;;;;;;;5061539;28;20456;-81
2022/07/07 04:17:16;;;;;;;3.15;1.58;;;;;;;;;;5061506;28;20053;-81
2022/07/07 04:19:44;;;;;;;4.60;1.73;;;;;;;;;;5062049;28;20448;-82
2022/07/07 04:22:11;;;;;;;4.00;1.75;;;;;;;;;;5061543;28;20074;-82
2022/07/07 04:24:38;;;;;;;5.22;1.50;;;;;;;;;;5080574;28;20387;-82
2022/07/07 04:27:08;;;;;;;5.60;1.70;;;;;;;;;;5079777;28;20564;-82
2022/07/07 04:29:35;;;;;;;3.00;1.65;;;;;;;;;;5062312;28;20056;-82
2022/07/07 04:32:04;;;;;;;3.78;1.60;;;;;;;;;;5061771;28;20097;-81
2022/07/07 04:34:31;;;;;;;3.50;1.60;;;;;;;;;;5061396;28;20401;-82
2022/07/07 04:36:58;;;;;;;4.28;1.73;;;;;;;;;;5061062;28;20090;-81
2022/07/07 04:39:25;;;;;;;3.88;1.75;;;;;;;;;;5061739;28;20044;-82
2022/07/07 04:41:52;;;;;;;1.80;1.67;;;;;;;;;;5061259;28;20450;-81
2022/07/07 04:44:19;;;;;;;5.28;2.42;;;;;;;;;;5060973;28;20052;-82
2022/07/07 04:46:46;;;;;;;4.05;1.80;;;;;;;;;;5078985;28;20414;-82
2022/07/07 04:49:14;;;;;;;4.88;1.92;;;;;;;;;;5079477;28;20048;-82
2022/07/07 04:51:46;;;;;;;5.60;2.00;;;;;;;;;;5061172;28;20104;-82
2022/07/07 04:54:13;;;;;;;7.35;2.08;;;;;;;;;;5060651;28;20068;-82
2022/07/07 04:56:40;;;;;;;4.80;1.95;;;;;;;;;;5060269;28;20044;-84
2022/07/07 04:59:07;;;;;;;2.88;1.88;;;;;;;;;;5059831;28;20049;-85
2022/07/07 05:01:35;;;;;;;3.45;2.03;;;;;;;;;;5060097;28;20044;-85
2022/07/07 05:04:02;;;;;;;7.10;2.83;;;;;;;;;;5062691;28;20052;-85
2022/07/07 05:06:29;;;;;;;3.67;2.22;;;;;;;;;;5065638;28;20053;-85
2022/07/07 05:08:56;;;;;;;5.00;2.60;;;;;;;;;;5060921;28;20421;-85
2022/07/07 05:11:24;;;;;;;5.78;2.60;;;;;;;;;;5060495;28;20052;-85
2022/07/07 05:13:51;;;;;;;3.28;2.78;;;;;;;;;;5059884;28;20095;-85
2022/07/07 05:16:18;;;;;;;2.80;2.60;;;;;;;;;;5059458;28;20052;-86
2022/07/07 05:18:45;;;;;;;4.00;2.38;;;;;;;;;;5059490;28;20079;-86
2022/07/07 05:21:12;;;;;;;3.00;2.55;;;;;;;;;;5059411;28;20101;-85
2022/07/07 05:23:39;;;;;;;3.53;2.33;;;;;;;;;;5057845;28;20146;-87
2022/07/07 05:26:07;;;;;;;5.03;2.42;;;;;;;;;;5056241;28;20049;-87
2022/07/07 05:28:36;;;;;;;3.97;2.60;;;;;;;;;;5056471;28;20045;-87
2022/07/07 05:31:03;;;;;;;4.30;2.58;;;;;;;;;;5056367;28;20136;-86
2022/07/07 05:33:30;;;;;;;3.13;2.65;;;;;;;;;;5057029;28;20051;-86
2022/07/07 05:35:57;;;;;;;6.30;2.58;;;;;;;;;;5056838;28;20177;-87
2022/07/07 05:38:28;;;;;;;5.03;2.50;;;;;;;;;;5056934;28;20048;-87
2022/07/07 05:40:55;;;;;;;6.38;2.72;;;;;;;;;;5056481;28;20044;-87
2022/07/07 05:43:22;;;;;;;3.03;2.70;;;;;;;;;;5056679;28;20106;-87
2022/07/07 05:45:50;;;;;;;5.43;2.75;;;;;;;;;;5055897;28;20079;-87
2022/07/07 05:48:17;;;;;;;10.05;3.22;;;;;;;;;;5056484;28;20131;-87
2022/07/07 05:50:45;;;;;;;7.55;3.70;;;;;;;;;;5057117;28;20098;-86
2022/07/07 05:53:12;;;;;;;5.15;3.05;;;;;;;;;;5064003;22;20084;-84
2022/07/07 05:55:39;;;;;;;5.90;3.40;;;;;;;;;;5074077;28;20076;-84
2022/07/07 05:58:07;;;;;;;6.05;3.50;;;;;;;;;;5074342;28;20543;-86
2022/07/07 06:00:35;;;;;;;5.47;3.22;;;;;;;;;;5074299;28;20102;-83
2022/07/07 06:03:02;;;;;;;4.00;3.25;;;;;;;;;;5073824;28;20067;-84
2022/07/07 06:05:29;;;;;;;4.00;3.45;;;;;;;;;;5074355;28;20412;-84
2022/07/07 06:07:56;;;;;;;4.25;3.88;;;;;;;;;;5074255;28;20049;-84
2022/07/07 06:10:24;;;;;;;6.00;3.80;;;;;;;;;;5074986;28;20143;-85
2022/07/07 06:12:51;;;;;;;4.93;3.97;;;;;;;;;;5076366;28;20462;-84
2022/07/07 06:15:20;;;;;;;6.22;4.40;;;;;;;;;;5076997;28;20068;-84
2022/07/07 06:17:48;;;;;;;5.10;4.35;;;;;;;;;;5076106;28;20497;-85
2022/07/07 06:20:34;;;;;;;5.10;4.60;;;;;;;;;;5077947;28;20493;-85
2022/07/07 06:23:01;;;;;;;7.50;6.68;;;;;;;;;;5083154;28;20045;-85
2022/07/07 06:25:29;;;;;;;5.30;4.80;;;;;;;;;;5077544;28;20079;-83
2022/07/07 06:27:56;;;;;;;4.30;3.65;;;;;;;;;;5073448;28;20048;-86
2022/07/07 06:30:23;;;;;;;8.55;5.10;;;;;;;;;;5076673;28;20481;-85
2022/07/07 06:32:50;;;;;;;4.20;3.88;;;;;;;;;;5074002;28;20051;-81
2022/07/07 06:35:20;;;;;;;4.07;3.72;;;;;;;;;;5074541;28;20501;-82
2022/07/07 06:37:48;;;;;;;7.40;3.38;;;;;;;;;;5073365;28;20052;-84
2022/07/07 06:40:15;;;;;;;4.20;3.88;;;;;;;;;;5075337;28;20044;-83
2022/07/07 06:42:47;;;;;;;4.80;4.30;;;;;;;;;;5073908;28;20056;-85
2022/07/07 06:45:18;;;;;;;9.55;4.13;;;;;;;;;;5075536;28;20079;-84
2022/07/07 06:47:47;;;;;;;6.15;3.78;;;;;;;;;;5076795;28;20490;-85
2022/07/07 06:50:29;;;;;;;5.80;3.78;;;;;;;;;;5075342;28;20056;-86
2022/07/07 06:52:56;;;;;;;4.97;3.80;;;;;;;;;;5073052;28;20045;-83
2022/07/07 06:55:23;;;;;;;7.63;3.95;;;;;;;;;;5073634;28;20547;-84
2022/07/07 06:57:50;;;;;;;4.85;3.85;;;;;;;;;;5074800;28;20091;-85
2022/07/07 07:00:18;;;;;;;7.90;4.45;;;;;;;;;;5073665;28;20068;-84
2022/07/07 07:02:46;;;;;;;7.38;4.40;;;;;;;;;;5075656;28;20049;-84
2022/07/07 07:05:14;;;;;;;4.85;4.00;;;;;;;;;;5073205;28;20053;-79
2022/07/07 07:07:42;;;;;;;4.22;3.88;;;;;;;;;;5074630;28;20536;-84
2022/07/07 07:10:09;;;;;;;4.75;3.65;;;;;;;;;;5073950;28;20048;-87
2022/07/07 07:12:36;;;;;;;4.00;3.60;;;;;;;;;;5073786;28;20394;-83
2022/07/07 07:15:04;;;;;;;6.93;4.03;;;;;;;;;;5077339;28;20076;-86
2022/07/07 07:17:31;;;;;;;4.65;4.25;;;;;;;;;;5077700;28;20110;-86
2022/07/07 07:19:58;;;;;;;4.85;3.63;;;;;;;;;;5078067;28;20075;-83
2022/07/07 07:22:26;;;;;;;4.03;3.83;;;;;;;;;;5079046;28;20055;-84
2022/07/07 07:24:53;;;;;;;3.97;3.72;;;;;;;;;;5078722;28;20048;-81
2022/07/07 07:27:21;;;;;;;5.28;3.38;;;;;;;;;;5077863;28;20052;-81
2022/07/07 07:29:48;;;;;;;4.63;3.45;;;;;;;;;;5078472;28;20049;-87
2022/07/07 07:32:15;;;;;;;4.10;3.67;;;;;;;;;;5080247;28;20494;-87
2022/07/07 07:34:42;;;;;;;3.60;3.40;;;;;;;;;;5079365;28;20386;-86
2022/07/07 07:37:09;;;;;;;3.70;3.38;;;;;;;;;;5080488;28;20045;-85
2022/07/07 07:39:36;;;;;;;5.10;3.60;;;;;;;;;;5079015;28;20048;-84
2022/07/07 07:42:04;;;;;;;5.20;3.80;;;;;;;;;;5075769;28;20489;-82
2022/07/07 07:47:17;;;;;;;4.57;4.28;;;;;;;;;;5077696;28;20106;-86
2022/07/07 07:49:47;;;;;;;6.32;4.03;;;;;;;;;;5076078;28;20139;-85
2022/07/07 07:52:14;;;;;;;3.83;3.50;;;;;;;;;;5075825;28;20106;-87
2022/07/07 07:54:41;;;;;;;5.65;4.75;;;;;;;;;;5076001;28;20071;-84
2022/07/07 07:57:09;;;;;;;4.32;3.92;;;;;;;;;;5075892;28;20086;-88
2022/07/07 07:59:37;;;;;;;4.13;3.45;;;;;;;;;;5042973;28;20055;-88
2022/07/07 08:02:09;;;;;;;4.38;4.07;;;;;;;;;;5075475;28;20051;-86
2022/07/07 08:04:54;;;;;;;4.20;3.90;;;;;;;;;;5078110;28;20547;-86
2022/07/07 08:07:21;;;;;;;3.65;3.50;;;;;;;;;;5075879;28;20059;-88
2022/07/07 08:09:48;;;;;;;4.72;4.40;;;;;;;;;;5075991;28;20052;-85
2022/07/07 08:12:17;;;;;;;4.30;3.50;;;;;;;;;;5076129;28;20040;-86
2022/07/07 08:14:54;;;;;;;6.03;3.88;;;;;;;;;;5079111;28;20139;-87
2022/07/07 08:17:21;;;;;;;3.70;3.45;;;;;;;;;;5078366;28;20040;-83
2022/07/07 08:19:49;;;;;;;5.38;3.90;;;;;;;;;;5076307;28;20044;-85
2022/07/07 08:22:16;;;;;;;4.35;3.95;;;;;;;;;;5076696;28;20559;-84
2022/07/07 08:24:43;;;;;;;3.92;3.55;;;;;;;;;;5076522;28;20493;-87
2022/07/07 08:27:11;;;;;;;3.55;3.35;;;;;;;;;;5076628;28;20079;-82
2022/07/07 08:29:39;;;;;;;4.32;3.85;;;;;;;;;;5076294;28;20048;-82
2022/07/07 08:32:07;;;;;;;4.32;3.97;;;;;;;;;;5075898;28;20505;-85
2022/07/07 08:34:35;;;;;;;5.97;4.35;;;;;;;;;;5075882;28;20045;-85
2022/07/07 08:37:08;;;;;;;;;;;;;;;;;;5076985;28;20132;-84
2022/07/07 08:39:35;;;;;;;6.78;4.68;;;;;;;;;;5059851;28;19927;-84
2022/07/07 08:42:03;;;;;;;7.75;4.90;;;;;;;;;;5078623;28;20055;-86
2022/07/07 08:44:30;;;;;;;5.22;4.72;;;;;;;;;;5075713;28;20044;-84
2022/07/07 08:46:57;;;;;;;5.40;5.00;;;;;;;;;;5074757;28;20044;-84
2022/07/07 08:49:26;;;;;;;6.25;5.13;;;;;;;;;;5076299;28;20051;-84
2022/07/07 08:51:55;;;;;;;7.35;5.65;;;;;;;;;;5075162;28;20064;-82
2022/07/07 08:54:23;;;;;;;5.28;4.65;;;;;;;;;;5075238;28;20045;-86
2022/07/07 08:56:50;;;;;;;6.80;4.88;;;;;;;;;;5075803;28;20095;-84
2022/07/07 08:59:18;;;;;;;5.85;4.40;;;;;;;;;;5076044;28;20079;-83
2022/07/07 09:01:55;;;;;;;6.18;5.68;;;;;;;;;;5075988;28;20044;-85
2022/07/07 09:04:22;;;;;;;5.50;5.00;;;;;;;;;;5075166;28;20045;-83
2022/07/07 09:06:54;;;;;;;6.40;5.00;;;;;;;;;;5075215;28;20052;-83
2022/07/07 09:09:37;;;;;;;4.63;4.35;;;;;;;;;;5073776;28;20044;-84
2022/07/07 09:12:04;;;;;;;4.88;4.57;;;;;;;;;;5074920;28;20053;-82
2022/07/07 09:14:54;;;;;;;6.03;4.95;;;;;;;;;;5075159;28;20098;-82
2022/07/07 09:17:34;;;;;;;7.53;4.85;;;;;;;;;;5057118;28;20048;-84
2022/07/07 09:20:03;;;;;;;6.07;5.53;;;;;;;;;;5073129;28;20535;-85
2022/07/07 09:22:45;;;;;;;5.40;4.90;;;;;;;;;;5073569;28;20057;-85
2022/07/07 09:25:13;;;;;;;5.45;4.95;;;;;;;;;;5073554;28;20413;-84
2022/07/07 09:27:54;;;;;;;5.60;4.90;;;;;;;;;;5073053;28;20114;-85
2022/07/07 09:30:28;;;;;;;5.30;4.90;;;;;;;;;;5073154;28;20409;-85
2022/07/07 09:32:56;;;;;;;5.40;4.90;;;;;;;;;;5073031;28;20076;-85
2022/07/07 09:38:13;;;;;;;6.75;5.05;;;;;;;;;;5073867;28;20451;-86
2022/07/07 09:40:51;;;;;;;4.47;4.07;;;;;;;;;;5073914;28;20056;-84
2022/07/07 09:43:19;;;;;;;4.80;4.50;;;;;;;;;;5074289;28;20452;-84
2022/07/07 09:45:47;;;;;;;4.05;3.72;;;;;;;;;;5073653;28;20045;-86
2022/07/07 09:48:14;;;;;;;4.03;3.33;;;;;;;;;;5075180;28;20079;-86
2022/07/07 09:50:42;;;;;;;4.65;3.70;;;;;;;;;;5075039;28;20045;-86
2022/07/07 09:53:09;;;;;;;3.00;2.85;;;;;;;;;;5075934;28;20110;-86
2022/07/07 09:55:36;;;;;;;2.97;2.78;;;;;;;;;;5074255;28;20095;-86
2022/07/07 09:58:03;;;;;;;3.25;2.38;;;;;;;;;;5073445;28;20087;-85
2022/07/07 10:00:31;;;;;;;2.38;2.28;;;;;;;;;;5075219;28;20059;-85
2022/07/07 10:03:00;;;;;;;2.90;2.80;;;;;;;;;;5074490;28;20139;-86
2022/07/07 10:05:27;;;;;;;3.40;3.10;;;;;;;;;;5074116;28;20045;-86
2022/07/07 10:07:56;;;;;;;3.05;2.60;;;;;;;;;;5074899;28;20070;-87
2022/07/07 10:10:23;;;;;;;3.10;2.90;;;;;;;;;;5075064;28;20051;-86
2022/07/07 10:12:52;;;;;;;3.75;3.03;;;;;;;;;;5074631;28;20472;-86
2022/07/07 10:15:21;;;;;;;3.25;3.15;;;;;;;;;;5074389;28;20040;-84
2022/07/07 10:17:48;;;;;;;3.15;3.03;;;;;;;;;;5074593;28;20520;-86
2022/07/07 10:20:15;;;;;;;3.85;3.28;;;;;;;;;;5075004;28;20048;-88
2022/07/07 10:22:43;;;;;;;3.33;3.05;;;;;;;;;;5074456;28;20409;-85
2022/07/07 10:25:11;;;;;;;4.22;3.55;;;;;;;;;;5073318;28;20453;-87
2022/07/07 10:27:42;;;;;;;4.90;3.33;;;;;;;;;;5074726;28;20048;-87
2022/07/07 10:30:10;;;;;;;5.80;3.35;;;;;;;;;;5074552;28;20048;-87
2022/07/07 10:32:40;;;;;;;4.25;3.95;;;;;;;;;;5074388;28;20067;-86
2022/07/07 10:35:08;;;;;;;4.43;3.97;;;;;;;;;;5075039;28;20048;-88
2022/07/07 10:37:42;;;;;;;4.20;3.90;;;;;;;;;;5074175;28;20044;-87
2022/07/07 10:40:13;;;;;;;4.63;4.22;;;;;;;;;;5074152;28;20048;-86
2022/07/07 10:42:49;;;;;;;6.53;4.90;;;;;;;;;;5075400;28;20139;-87
2022/07/07 10:45:17;;;;;;;6.20;5.10;;;;;;;;;;5076879;28;20048;-87
2022/07/07 10:47:45;;;;;;;7.60;5.35;;;;;;;;;;5077217;28;20044;-86
2022/07/07 10:50:28;;;;;;;6.75;6.03;;;;;;;;;;5080007;28;20098;-86
2022/07/07 10:52:56;;;;;;;5.45;5.05;;;;;;;;;;5079399;28;20045;-87
2022/07/07 10:55:53;;;;;;;6.22;5.25;;;;;;;;;;5079560;28;20051;-85
2022/07/07 10:58:53;;;;;;;5.35;4.88;;;;;;;;;;5080734;28;20533;-87
2022/07/07 11:01:21;;;;;;;7.00;5.53;;;;;;;;;;5030153;28;20118;-87
2022/07/07 11:03:48;;;;;;;5.15;4.75;;;;;;;;;;5091234;28;20060;-86
2022/07/07 11:06:15;;;;;;;5.07;4.53;;;;;;;;;;5081829;28;20484;-86
2022/07/07 11:08:42;;;;;;;5.55;4.80;;;;;;;;;;5077886;28;20048;-87
2022/07/07 11:11:10;;;;;;;4.53;4.13;;;;;;;;;;5080396;28;20057;-87
2022/07/07 11:13:38;;;;;;;4.35;4.10;;;;;;;;;;5078914;28;20421;-86
2022/07/07 11:16:24;;;;;;;3.50;3.30;;;;;;;;;;5078213;28;20099;-88
2022/07/07 11:18:59;;;;;;;3.33;3.08;;;;;;;;;;5077095;28;20044;-88
2022/07/07 11:21:37;;;;;;;5.32;3.90;;;;;;;;;;5077354;28;20049;-87
2022/07/07 11:24:16;;;;;;;3.42;3.15;;;;;;;;;;5076780;28;20528;-87
2022/07/07 11:26:52;;;;;;;2.90;2.80;;;;;;;;;;5075294;28;20464;-87
2022/07/07 11:29:23;;;;;;;2.50;2.40;;;;;;;;;;5075435;28;20053;-87
2022/07/07 11:32:17;;;;;;;2.92;2.72;;;;;;;;;;5075122;28;20052;-87
2022/07/07 11:35:20;;;;;;;2.35;2.15;;;;;;;;;;5075461;28;20523;-87
2022/07/07 11:37:54;;;;;;;2.20;2.10;;;;;;;;;;5075646;28;20182;-87
2022/07/07 11:40:31;;;;;;;1.83;1.73;;;;;;;;;;5076238;28;20052;-87
2022/07/07 11:43:05;;;;;;;1.70;1.60;;;;;;;;;;5076951;28;20416;-87
2022/07/07 11:45:44;;;;;;;1.27;1.27;;;;;;;;;;5075324;28;20052;-86
2022/07/07 11:48:23;;;;;;;1.30;1.20;;;;;;;;;;5075024;28;20140;-87
2022/07/07 11:50:51;;;;;;;1.52;1.50;;;;;;;;;;5075676;28;20048;-87
2022/07/07 11:53:22;;;;;;;0.98;0.93;;;;;;;;;;5075989;28;20056;-86
2022/07/07 11:55:49;;;;;;;0.90;0.90;;;;;;;;;;5075258;28;20051;-86
2022/07/07 11:58:16;;;;;;;2.03;1.00;;;;;;;;;;5075915;28;20174;-87
2022/07/07 12:00:44;;;;;;;0.95;0.95;;;;;;;;;;5075374;28;20111;-85
2022/07/07 12:03:12;;;;;;;1.20;1.10;;;;;;;;;;5075989;28;20048;-86
2022/07/07 12:05:45;;;;;;;0.80;0.80;;;;;;;;;;5076310;28;20131;-87
2022/07/07 12:08:14;;;;;;;0.90;0.90;;;;;;;;;;5076325;28;20060;-86
2022/07/07 12:10:42;;;;;;;0.70;0.70;;;;;;;;;;5077362;28;20472;-88
2022/07/07 12:13:11;;;;;;;0.80;0.80;;;;;;;;;;5076560;28;20477;-88
2022/07/07 12:15:42;;;;;;;2.15;1.42;;;;;;;;;;5077395;28;20143;-86
2022/07/07 12:18:10;;;;;;;0.95;0.95;;;;;;;;;;5076943;28;20048;-87
2022/07/07 12:20:39;;;;;;;2.20;1.23;;;;;;;;;;5077731;28;20052;-85
2022/07/07 12:23:07;;;;;;;1.48;1.38;;;;;;;;;;5077520;28;20079;-87
2022/07/07 12:25:35;;;;;;;1.65;0.93;;;;;;;;;;5076838;28;20045;-86
2022/07/07 12:28:08;;;;;;;;;;;;;;;;;;5076786;28;20051;-86
2022/07/07 12:30:52;;;;;;;1.13;1.10;;;;;;;;;;5061210;28;19920;-85
2022/07/07 12:33:27;;;;;;;1.10;1.10;;;;;;;;;;5076156;28;20049;-83
2022/07/07 12:36:00;;;;;;;1.02;1.02;;;;;;;;;;5076860;28;20452;-86
2022/07/07 12:38:47;;;;;;;1.10;1.10;;;;;;;;;;5077193;28;20052;-87
2022/07/07 12:41:24;;;;;;;1.20;1.20;;;;;;;;;;5078196;28;20123;-83
2022/07/07 12:43:52;;;;;;;1.20;1.10;;;;;;;;;;5076843;28;20057;-86
2022/07/07 12:46:20;;;;;;;1.63;1.48;;;;;;;;;;5078349;28;20048;-85
2022/07/07 12:48:51;;;;;;;1.55;1.42;;;;;;;;;;5076508;28;20444;-84
2022/07/07 12:51:24;;;;;;;1.30;1.20;;;;;;;;;;5077277;28;20060;-87
2022/07/07 12:53:51;;;;;;;2.25;1.20;;;;;;;;;;5077328;28;20044;-86
2022/07/07 12:56:19;;;;;;;2.05;1.20;;;;;;;;;;5077331;28;20048;-86
2022/07/07 12:58:48;;;;;;;1.30;1.20;;;;;;;;;;5077619;28;20064;-86
2022/07/07 13:01:17;;;;;;;1.33;1.23;;;;;;;;;;5075271;28;20482;-87
2022/07/07 13:03:50;;;;;;;2.40;1.33;;;;;;;;;;5076767;28;20054;-86
2022/07/07 13:06:17;;;;;;;2.28;1.42;;;;;;;;;;5076385;28;20055;-87
2022/07/07 13:08:45;;;;;;;1.35;1.30;;;;;;;;;;5075667;28;20049;-86
2022/07/07 13:11:13;;;;;;;1.20;1.17;;;;;;;;;;5074833;28;20442;-86
2022/07/07 13:13:40;;;;;;;1.17;1.17;;;;;;;;;;5077489;28;20114;-87
2022/07/07 13:16:27;;;;;;;2.05;1.30;;;;;;;;;;5077875;28;20044;-87
2022/07/07 13:18:54;;;;;;;1.20;1.20;;;;;;;;;;5079192;28;20045;-86
2022/07/07 13:21:21;;;;;;;1.48;1.17;;;;;;;;;;5081358;28;20044;-84
2022/07/07 13:23:49;;;;;;;1.20;1.20;;;;;;;;;;5079401;28;20102;-86
2022/07/07 13:26:16;;;;;;;1.45;1.17;;;;;;;;;;5076170;28;20048;-87
2022/07/07 13:28:43;;;;;;;1.20;1.10;;;;;;;;;;5075192;28;20048;-85
2022/07/07 13:31:10;;;;;;;1.55;1.30;;;;;;;;;;5075753;28;20048;-85
2022/07/07 13:33:37;;;;;;;1.33;1.30;;;;;;;;;;5074973;28;20131;-86
2022/07/07 13:36:05;;;;;;;1.35;1.20;;;;;;;;;;5074125;28;20052;-86
2022/07/07 13:38:32;;;;;;;1.52;1.00;;;;;;;;;;5075682;28;20044;-86
2022/07/07 13:41:03;;;;;;;0.80;0.80;;;;;;;;;;5074620;28;20057;-86
2022/07/07 13:43:38;;;;;;;1.15;1.13;;;;;;;;;;5075611;28;20148;-86
2022/07/07 13:46:06;;;;;;;2.03;1.10;;;;;;;;;;5076087;28;20052;-86
2022/07/07 13:48:34;;;;;;;2.95;1.20;;;;;;;;;;5075285;28;20049;-86
2022/07/07 13:51:01;;;;;;;5.25;1.38;;;;;;;;;;5074889;28;20060;-86
2022/07/07 13:53:48;;;;;;;1.83;0.75;;;;;;;;;;5074614;28;20143;-86
2022/07/07 13:56:35;;;;;;;0.50;0.50;;;;;;;;;;5075327;28;20047;-86
2022/07/07 13:59:02;;;;;;;1.58;0.57;;;;;;;;;;5075141;28;20444;-86
2022/07/07 14:01:29;;;;;;;2.75;0.68;;;;;;;;;;5075508;28;20094;-86
2022/07/07 14:03:56;;;;;;;2.65;0.75;;;;;;;;;;5074760;28;20572;-86
2022/07/07 14:06:24;;;;;;;2.53;0.70;;;;;;;;;;5075352;28;20468;-86
2022/07/07 14:08:51;;;;;;;1.13;0.50;;;;;;;;;;5076395;28;20060;-86
2022/07/07 14:11:18;;;;;;;0.40;0.40;;;;;;;;;;5077229;28;20048;-86
2022/07/07 14:13:48;;;;;;;0.60;0.60;;;;;;;;;;5074122;28;20045;-86
2022/07/07 14:16:15;;;;;;;0.60;0.60;;;;;;;;;;5073815;28;20040;-87
2022/07/07 14:18:42;;;;;;;0.70;0.70;;;;;;;;;;5074692;28;20127;-86
2022/07/07 14:21:10;;;;;;;0.93;0.70;;;;;;;;;;5073940;28;20110;-86
2022/07/07 14:23:37;;;;;;;1.48;0.85;;;;;;;;;;5072067;28;20417;-88
2022/07/07 14:26:04;;;;;;;0.68;0.68;;;;;;;;;;5072650;28;20040;-87
2022/07/07 14:28:31;;;;;;;0.60;0.60;;;;;;;;;;5072937;28;20056;-87
2022/07/07 14:31:00;;;;;;;0.60;0.60;;;;;;;;;;5072361;28;20083;-87
2022/07/07 14:33:27;;;;;;;0.50;0.40;;;;;;;;;;5074590;28;20462;-86
2022/07/07 14:35:54;;;;;;;0.50;0.50;;;;;;;;;;5073606;28;20458;-86
2022/07/07 14:38:21;;;;;;;0.60;0.60;;;;;;;;;;5073702;28;20084;-86
2022/07/07 14:40:48;;;;;;;0.73;0.40;;;;;;;;;;5072989;28;20106;-86
2022/07/07 14:43:16;;;;;;;0.40;0.40;;;;;;;;;;5073867;28;20052;-86
2022/07/07 14:45:44;;;;;;;1.73;0.63;;;;;;;;;;5073742;28;20118;-87
2022/07/07 14:48:11;;;;;;;0.63;0.57;;;;;;;;;;5075730;28;20401;-87
2022/07/07 14:50:38;;;;;;;1.25;0.50;;;;;;;;;;5073006;28;20079;-87
2022/07/07 14:53:05;;;;;;;0.63;0.63;;;;;;;;;;5072159;28;20068;-87
2022/07/07 14:55:33;;;;;;;0.93;0.73;;;;;;;;;;5071928;28;20075;-89
2022/07/07 14:58:16;;;;;;;1.20;0.70;;;;;;;;;;5073332;28;20068;-89
2022/07/07 15:00:59;;;;;;;1.33;0.80;;;;;;;;;;5075019;28;20072;-88